createdAt,value
2017-06-09T00:02:35.293Z,0
2017-06-09T00:12:44.621Z,0
2017-06-09T00:22:53.800Z,0
2017-06-09T00:33:03.046Z,0
2017-06-09T00:43:12.330Z,0
2017-06-09T00:53:21.649Z,0
2017-06-09T01:03:30.974Z,0
2017-06-09T01:13:40.287Z,0
2017-06-09T01:23:49.550Z,0
2017-06-09T01:33:58.891Z,0
2017-06-09T01:44:08.246Z,0
2017-06-09T01:54:17.566Z,0
2017-06-09T02:04:26.965Z,0
2017-06-09T02:14:36.343Z,0
2017-06-09T02:24:45.761Z,4
2017-06-09T02:34:55.221Z,8
2017-06-09T02:45:04.642Z,24
2017-06-09T02:55:14.046Z,68
2017-06-09T03:05:23.449Z,192
2017-06-09T03:15:32.882Z,376
2017-06-09T03:25:42.314Z,672
2017-06-09T03:35:51.654Z,1128
2017-06-09T03:46:01.036Z,2092
2017-06-09T03:56:10.382Z,2676
2017-06-09T04:06:19.690Z,3572
2017-06-09T04:16:28.897Z,5508
2017-06-09T04:26:37.941Z,8692
2017-06-09T04:36:46.820Z,11620
2017-06-09T04:46:55.470Z,9572
2017-06-09T04:57:04.093Z,9848
2017-06-09T05:07:12.621Z,10348
2017-06-09T05:17:21.278Z,15008
2017-06-09T05:27:29.919Z,16356
2017-06-09T05:37:38.373Z,12624
2017-06-09T05:47:46.848Z,13976
2017-06-09T05:57:55.432Z,10800
2017-06-09T06:08:03.932Z,14104
2017-06-09T06:18:12.707Z,15980
2017-06-09T06:28:21.027Z,13392
2017-06-09T06:38:29.534Z,23840
2017-06-09T06:48:37.999Z,13012
2017-06-09T06:58:46.496Z,10024
2017-06-09T07:08:55.062Z,19392
2017-06-09T07:19:03.568Z,33472
2017-06-09T07:29:11.822Z,25696
2017-06-09T07:39:19.960Z,25280
2017-06-09T07:49:28.074Z,17376
2017-06-09T07:59:36.244Z,24928
2017-06-09T08:09:44.262Z,27104
2017-06-09T08:19:52.344Z,27456
2017-06-09T08:30:00.159Z,25536
2017-06-09T08:40:08.041Z,29440
2017-06-09T08:50:15.992Z,35616
2017-06-09T09:00:23.945Z,23488
2017-06-09T09:10:31.991Z,26304
2017-06-09T09:20:40.076Z,26240
2017-06-09T09:30:48.215Z,15312
2017-06-09T09:40:56.486Z,16812
2017-06-09T09:51:04.858Z,18304
2017-06-09T10:01:13.320Z,12340
2017-06-09T10:03:50.262Z,15028
